createdAt,value
2022-10-26T00:01:16.282Z,10.70
2022-10-26T00:03:44.683Z,10.70
2022-10-26T00:06:14.486Z,10.70
2022-10-26T00:08:42.188Z,10.60
2022-10-26T00:11:09.917Z,10.60
2022-10-26T00:13:37.751Z,10.60
2022-10-26T00:16:42.923Z,10.60
2022-10-26T00:19:09.751Z,10.60
2022-10-26T00:21:36.713Z,10.60
2022-10-26T00:24:03.892Z,10.60
2022-10-26T00:26:30.806Z,10.60
2022-10-26T00:28:58.375Z,10.70
2022-10-26T00:31:25.625Z,10.70
2022-10-26T00:33:54.143Z,10.60
2022-10-26T00:36:22.255Z,10.70
2022-10-26T00:38:53.791Z,10.70
2022-10-26T00:41:26.780Z,10.70
2022-10-26T00:43:53.969Z,10.70
2022-10-26T00:46:28.351Z,10.60
2022-10-26T00:51:54.463Z,10.60
2022-10-26T00:54:21.620Z,10.60
2022-10-26T00:56:50.586Z,10.60
2022-10-26T00:59:19.222Z,10.60
2022-10-26T01:01:47.812Z,10.50
2022-10-26T01:04:15.918Z,10.50
2022-10-26T01:06:44.734Z,10.40
2022-10-26T01:09:12.738Z,10.40
2022-10-26T01:11:39.604Z,10.40
2022-10-26T01:14:10.074Z,10.30
2022-10-26T01:19:38.958Z,10.30
2022-10-26T01:22:20.666Z,10.30
2022-10-26T01:25:05.535Z,10.30
2022-10-26T01:27:43.291Z,10.20
2022-10-26T01:30:40.412Z,10.20
2022-10-26T01:33:34.029Z,10.10
2022-10-26T01:39:28.101Z,10.10
2022-10-26T01:42:00.530Z,10.00
2022-10-26T01:44:43.727Z,10.00
2022-10-26T01:47:14.083Z,10.00
2022-10-26T01:49:56.496Z,10.00
2022-10-26T01:52:24.083Z,9.90
2022-10-26T01:54:51.150Z,9.90
2022-10-26T01:57:21.569Z,9.90
2022-10-26T01:59:58.212Z,9.90
2022-10-26T02:02:58.668Z,9.80
2022-10-26T02:05:53.668Z,9.80
2022-10-26T02:08:44.602Z,9.80
2022-10-26T02:11:42.952Z,9.80
2022-10-26T02:14:23.758Z,9.70
2022-10-26T02:16:58.372Z,9.70
2022-10-26T02:19:40.339Z,9.80
2022-10-26T02:22:27.778Z,9.80
2022-10-26T02:24:56.465Z,9.80
2022-10-26T02:27:27.617Z,9.80
2022-10-26T02:29:57.141Z,9.80
2022-10-26T02:32:32.043Z,9.80
2022-10-26T02:35:02.333Z,9.80
2022-10-26T02:37:30.530Z,9.80
2022-10-26T02:39:59.485Z,9.80
2022-10-26T02:42:27.971Z,9.80
2022-10-26T02:45:06.890Z,9.80
2022-10-26T02:47:34.443Z,9.80
2022-10-26T02:50:01.815Z,9.80
2022-10-26T02:52:47.871Z,9.80
2022-10-26T02:55:27.562Z,9.80
2022-10-26T02:58:05.148Z,9.80
2022-10-26T03:00:32.605Z,9.80
2022-10-26T03:02:59.890Z,9.70
2022-10-26T03:05:29.243Z,9.80
2022-10-26T03:07:56.619Z,9.80
2022-10-26T03:10:23.958Z,9.70
2022-10-26T03:12:51.420Z,9.70
2022-10-26T03:15:18.524Z,9.60
2022-10-26T03:17:45.504Z,9.60
2022-10-26T03:20:13.110Z,9.60
2022-10-26T03:22:39.949Z,9.50
2022-10-26T03:27:39.325Z,9.50
2022-10-26T03:30:06.723Z,9.50
2022-10-26T03:32:33.688Z,9.50
2022-10-26T03:35:00.679Z,9.50
2022-10-26T03:37:27.828Z,9.50
2022-10-26T03:39:54.919Z,9.50
2022-10-26T03:42:21.938Z,9.50
2022-10-26T03:44:48.710Z,9.50
2022-10-26T03:47:15.613Z,9.50
2022-10-26T03:49:42.571Z,9.50
2022-10-26T03:52:09.405Z,9.50
2022-10-26T03:54:36.179Z,9.50
2022-10-26T03:57:03.130Z,9.50
2022-10-26T03:59:29.937Z,9.50
2022-10-26T04:01:57.941Z,9.50
2022-10-26T04:04:25.344Z,9.40
2022-10-26T04:06:52.227Z,9.50
2022-10-26T04:09:19.095Z,9.50
2022-10-26T04:11:46.095Z,9.50
2022-10-26T04:14:12.898Z,9.50
2022-10-26T04:16:39.841Z,9.50
2022-10-26T04:19:07.010Z,9.50
2022-10-26T04:21:35.367Z,9.50
2022-10-26T04:24:02.691Z,9.50
2022-10-26T04:26:30.131Z,9.50
2022-10-26T04:28:57.012Z,9.40
2022-10-26T04:31:24.785Z,9.40
2022-10-26T04:33:51.742Z,9.40
2022-10-26T04:36:18.564Z,9.30
2022-10-26T04:38:45.476Z,9.30
2022-10-26T04:41:12.417Z,9.30
2022-10-26T04:43:39.213Z,9.40
2022-10-26T04:46:06.075Z,9.40
2022-10-26T04:48:33.082Z,9.30
2022-10-26T04:51:00.777Z,9.30
2022-10-26T04:53:27.998Z,9.40
2022-10-26T04:56:00.084Z,9.30
2022-10-26T04:58:30.154Z,9.30
2022-10-26T05:00:57.523Z,9.30
2022-10-26T05:03:24.620Z,9.30
2022-10-26T05:05:51.458Z,9.30
2022-10-26T05:08:18.265Z,9.20
2022-10-26T05:10:50.075Z,9.20
2022-10-26T05:13:16.964Z,9.20
2022-10-26T05:15:43.880Z,9.10
2022-10-26T05:18:10.890Z,9.10
2022-10-26T05:20:38.034Z,9.10
2022-10-26T05:23:06.783Z,9.10
2022-10-26T05:25:36.951Z,9.10
2022-10-26T05:28:08.046Z,9.10
2022-10-26T05:30:34.956Z,9.20
2022-10-26T05:33:05.058Z,9.20
2022-10-26T05:35:32.619Z,9.20
2022-10-26T05:37:59.889Z,9.10
2022-10-26T05:40:27.962Z,9.10
2022-10-26T05:43:01.028Z,9.00
2022-10-26T05:45:28.484Z,9.00
2022-10-26T05:47:58.600Z,9.00
2022-10-26T05:50:28.627Z,8.90
2022-10-26T05:52:55.991Z,9.00
2022-10-26T05:55:23.661Z,9.00
2022-10-26T05:57:51.121Z,9.00
2022-10-26T06:00:22.553Z,9.10
2022-10-26T06:03:14.571Z,9.10
2022-10-26T06:05:57.958Z,9.20
2022-10-26T06:08:27.510Z,9.20
2022-10-26T06:11:01.539Z,9.10
2022-10-26T06:13:28.792Z,9.20
2022-10-26T06:16:12.062Z,9.20
2022-10-26T06:18:41.985Z,9.20
2022-10-26T06:21:46.859Z,9.10
2022-10-26T06:24:58.214Z,9.10
2022-10-26T06:28:02.345Z,9.10
2022-10-26T06:30:29.409Z,9.10
2022-10-26T06:33:05.963Z,9.10
2022-10-26T06:36:06.701Z,9.10
2022-10-26T06:38:35.445Z,9.10
2022-10-26T06:41:03.301Z,9.10
2022-10-26T06:43:34.187Z,9.10
2022-10-26T06:46:11.162Z,9.10
2022-10-26T06:49:01.213Z,9.20
2022-10-26T06:51:30.991Z,9.10
2022-10-26T06:54:21.501Z,9.10
2022-10-26T06:56:49.142Z,9.10
2022-10-26T06:59:30.143Z,9.00
2022-10-26T07:01:57.169Z,9.00
2022-10-26T07:04:24.089Z,9.00
2022-10-26T07:06:51.053Z,9.00
2022-10-26T07:09:17.939Z,9.00
2022-10-26T07:11:44.730Z,9.00
2022-10-26T07:14:11.686Z,9.00
2022-10-26T07:16:38.658Z,8.90
2022-10-26T07:19:05.608Z,9.00
2022-10-26T07:21:32.629Z,9.10
2022-10-26T07:23:59.549Z,9.10
2022-10-26T07:26:27.527Z,9.00
2022-10-26T07:29:09.785Z,9.00
2022-10-26T07:31:36.711Z,8.90
2022-10-26T07:34:03.813Z,9.00
2022-10-26T07:36:33.367Z,9.10
2022-10-26T07:39:00.313Z,9.00
2022-10-26T07:41:27.393Z,9.10
2022-10-26T07:43:54.422Z,9.20
2022-10-26T07:46:21.566Z,9.30
2022-10-26T07:48:48.596Z,9.30
2022-10-26T07:51:16.148Z,9.30
2022-10-26T07:53:43.089Z,9.30
2022-10-26T07:56:10.941Z,9.30
2022-10-26T07:58:38.196Z,9.30
2022-10-26T08:01:13.394Z,9.20
2022-10-26T08:03:40.663Z,9.20
2022-10-26T08:06:09.595Z,9.30
2022-10-26T08:08:37.439Z,9.30
2022-10-26T08:11:05.902Z,9.40
2022-10-26T08:13:35.527Z,9.40
2022-10-26T08:16:04.543Z,9.40
2022-10-26T08:18:32.006Z,9.40
2022-10-26T08:21:11.223Z,9.30
2022-10-26T08:23:39.639Z,9.30
2022-10-26T08:26:07.419Z,9.40
2022-10-26T08:28:34.342Z,9.40
2022-10-26T08:31:01.707Z,9.40
2022-10-26T08:33:28.726Z,9.40
2022-10-26T08:36:04.828Z,9.30
2022-10-26T08:38:34.583Z,9.30
2022-10-26T08:41:08.897Z,9.20
2022-10-26T08:43:46.032Z,9.10
2022-10-26T08:46:24.140Z,9.10
2022-10-26T08:49:13.801Z,9.10
2022-10-26T08:51:42.287Z,9.10
2022-10-26T08:54:18.443Z,9.10
2022-10-26T08:56:54.295Z,9.10
2022-10-26T08:59:39.182Z,9.10
2022-10-26T09:02:14.532Z,9.20
2022-10-26T09:04:42.164Z,9.20
2022-10-26T09:07:32.871Z,9.30
2022-10-26T09:10:25.794Z,9.20
2022-10-26T09:12:58.820Z,9.30
2022-10-26T09:15:35.893Z,9.20
2022-10-26T09:18:32.538Z,9.30
2022-10-26T09:21:27.665Z,9.30
2022-10-26T09:24:14.890Z,9.40
2022-10-26T09:27:07.796Z,9.40
2022-10-26T09:29:39.890Z,9.30
2022-10-26T09:32:29.610Z,9.30
2022-10-26T09:35:02.163Z,9.40
2022-10-26T09:37:34.373Z,9.40
2022-10-26T09:40:09.110Z,9.30
2022-10-26T09:43:00.091Z,9.30
2022-10-26T09:45:37.809Z,9.30
2022-10-26T09:48:20.399Z,9.20
2022-10-26T09:50:49.663Z,9.20
2022-10-26T09:53:16.829Z,9.30
2022-10-26T09:55:47.095Z,9.30
2022-10-26T09:58:30.924Z,9.30
2022-10-26T10:00:58.424Z,9.30
2022-10-26T10:03:28.168Z,9.30
2022-10-26T10:06:19.066Z,9.40
2022-10-26T10:09:11.308Z,9.40
2022-10-26T10:11:59.620Z,9.50
2022-10-26T10:14:34.734Z,9.40
2022-10-26T10:17:21.783Z,9.50
2022-10-26T10:19:49.391Z,9.50
2022-10-26T10:22:16.224Z,9.50
2022-10-26T10:24:54.412Z,9.50
2022-10-26T10:27:21.773Z,9.50
2022-10-26T10:29:59.720Z,9.40
2022-10-26T10:32:35.515Z,9.50
2022-10-26T10:35:29.136Z,9.50
2022-10-26T10:37:56.218Z,9.60
2022-10-26T10:40:33.019Z,9.50
2022-10-26T10:43:12.432Z,9.50
2022-10-26T10:45:40.645Z,9.60
2022-10-26T10:48:15.419Z,9.70
2022-10-26T10:51:05.412Z,9.60
2022-10-26T10:53:43.614Z,9.70
2022-10-26T10:56:32.097Z,9.70
2022-10-26T10:59:20.257Z,9.60
2022-10-26T11:01:56.259Z,9.60
2022-10-26T11:05:03.302Z,9.70
2022-10-26T11:07:32.532Z,9.80
2022-10-26T11:10:04.013Z,9.90
2022-10-26T11:12:41.098Z,9.80
2022-10-26T11:15:18.409Z,9.80
2022-10-26T11:18:09.675Z,9.70
2022-10-26T11:20:46.043Z,9.80
2022-10-26T11:23:46.096Z,9.60
2022-10-26T11:26:20.685Z,9.60
2022-10-26T11:28:55.824Z,9.50
2022-10-26T11:31:42.871Z,9.40
2022-10-26T11:34:18.630Z,9.50
2022-10-26T11:36:52.582Z,9.40
2022-10-26T11:39:36.883Z,9.50
2022-10-26T11:42:18.977Z,9.50
2022-10-26T11:45:10.085Z,9.50
2022-10-26T11:47:44.341Z,9.50
2022-10-26T11:50:21.854Z,9.50
2022-10-26T11:52:57.862Z,9.50
2022-10-26T11:55:25.335Z,9.50
2022-10-26T11:57:54.533Z,9.50
2022-10-26T12:00:22.900Z,9.60
2022-10-26T12:03:11.147Z,9.50
2022-10-26T12:05:40.763Z,9.50
2022-10-26T12:08:24.709Z,9.40
2022-10-26T12:11:20.108Z,9.50
2022-10-26T12:14:20.152Z,9.50
2022-10-26T12:17:37.893Z,9.60
2022-10-26T12:20:30.673Z,9.50
2022-10-26T12:22:57.801Z,9.60
2022-10-26T12:25:24.890Z,9.60
2022-10-26T12:28:03.419Z,9.60
2022-10-26T12:30:32.848Z,9.60
2022-10-26T12:33:02.169Z,9.60
2022-10-26T12:35:40.794Z,9.50
2022-10-26T12:38:29.108Z,9.50
2022-10-26T12:41:08.807Z,9.50
2022-10-26T12:43:40.981Z,9.60
2022-10-26T12:46:14.614Z,9.60
2022-10-26T12:48:51.709Z,9.60
2022-10-26T12:51:27.956Z,9.70
2022-10-26T12:54:07.978Z,9.70
2022-10-26T12:56:55.929Z,10.00
2022-10-26T12:59:48.872Z,9.80
2022-10-26T13:02:40.535Z,9.80
2022-10-26T13:05:08.086Z,9.80
2022-10-26T13:07:40.643Z,9.70
2022-10-26T13:10:23.110Z,9.70
2022-10-26T13:12:59.280Z,9.80
2022-10-26T13:15:40.776Z,9.80
2022-10-26T13:18:18.237Z,9.70
2022-10-26T13:21:08.106Z,9.70
2022-10-26T13:23:38.504Z,9.70
2022-10-26T13:26:13.041Z,9.70
2022-10-26T13:28:45.781Z,9.60
2022-10-26T13:31:34.544Z,9.50
2022-10-26T13:37:10.310Z,9.50
2022-10-26T13:39:41.607Z,9.50
2022-10-26T13:42:21.905Z,9.70
2022-10-26T13:44:56.113Z,9.60
2022-10-26T13:47:29.481Z,9.60
2022-10-26T13:50:04.311Z,9.50
2022-10-26T13:52:45.632Z,9.50
2022-10-26T13:55:22.470Z,9.50
2022-10-26T13:58:20.868Z,9.50
2022-10-26T14:01:11.947Z,9.50
2022-10-26T14:03:39.879Z,9.40
2022-10-26T14:06:08.449Z,9.40
2022-10-26T14:08:35.472Z,9.40
2022-10-26T14:11:03.458Z,9.40
2022-10-26T14:13:31.829Z,9.40
2022-10-26T14:15:59.456Z,9.40
2022-10-26T14:18:30.017Z,9.40
2022-10-26T14:21:16.339Z,9.40
2022-10-26T14:24:03.755Z,9.30
2022-10-26T14:26:39.350Z,9.20
2022-10-26T14:29:19.278Z,9.30
2022-10-26T14:31:46.938Z,9.40
2022-10-26T14:34:13.971Z,9.30
2022-10-26T14:37:01.472Z,9.20
2022-10-26T14:39:34.062Z,9.20
2022-10-26T14:42:10.647Z,9.30
2022-10-26T14:44:38.026Z,9.30
2022-10-26T14:47:05.128Z,9.30
2022-10-26T14:49:32.688Z,9.40
2022-10-26T14:52:04.863Z,9.40
2022-10-26T14:54:33.907Z,9.40
2022-10-26T14:57:02.833Z,9.50
2022-10-26T14:59:31.747Z,9.50
2022-10-26T15:02:19.893Z,9.50
2022-10-26T15:05:02.378Z,9.50
2022-10-26T15:07:37.248Z,9.40
2022-10-26T15:10:05.492Z,9.50
2022-10-26T15:12:39.182Z,9.40
2022-10-26T15:15:15.338Z,9.40
2022-10-26T15:17:48.908Z,9.40
2022-10-26T15:20:22.149Z,9.40
2022-10-26T15:22:55.361Z,9.40
2022-10-26T15:25:26.169Z,9.40
2022-10-26T15:27:53.738Z,9.30
2022-10-26T15:30:25.180Z,9.30
2022-10-26T15:32:54.180Z,9.20
2022-10-26T15:35:33.846Z,9.20
2022-10-26T15:38:01.315Z,9.20
2022-10-26T15:40:30.714Z,9.30
2022-10-26T15:43:00.680Z,9.30
2022-10-26T15:45:31.773Z,9.30
2022-10-26T15:48:00.669Z,9.30
2022-10-26T15:50:29.396Z,9.20
2022-10-26T15:53:01.496Z,9.30
2022-10-26T15:55:30.374Z,9.30
2022-10-26T15:57:57.334Z,9.30
2022-10-26T16:00:24.493Z,9.30
2022-10-26T16:02:51.515Z,9.40
2022-10-26T16:05:18.570Z,9.40
2022-10-26T16:07:48.525Z,9.40
2022-10-26T16:10:21.994Z,9.30
2022-10-26T16:12:50.441Z,9.30
2022-10-26T16:15:23.246Z,9.30
2022-10-26T16:17:51.163Z,9.30
2022-10-26T16:20:22.984Z,9.20
2022-10-26T16:22:51.708Z,9.20
2022-10-26T16:25:24.238Z,9.20
2022-10-26T16:27:54.482Z,9.30
2022-10-26T16:30:24.747Z,9.20
2022-10-26T16:32:54.137Z,9.30
2022-10-26T16:35:21.030Z,9.30
2022-10-26T16:37:48.087Z,9.30
2022-10-26T16:40:15.128Z,9.20
2022-10-26T16:42:44.041Z,9.20
2022-10-26T16:45:15.256Z,9.20
2022-10-26T16:47:42.257Z,9.20
2022-10-26T16:50:11.671Z,9.20
2022-10-26T16:52:39.843Z,9.20
2022-10-26T16:55:08.924Z,9.20
2022-10-26T16:57:36.441Z,9.20
2022-10-26T17:00:05.797Z,9.20
2022-10-26T17:02:33.133Z,9.20
2022-10-26T17:05:02.759Z,9.10
2022-10-26T17:07:33.288Z,9.10
2022-10-26T17:10:00.118Z,9.10
2022-10-26T17:14:59.118Z,9.10
2022-10-26T17:17:26.135Z,9.10
2022-10-26T17:19:53.161Z,9.10
2022-10-26T17:22:20.162Z,9.10
2022-10-26T17:24:50.111Z,9.10
2022-10-26T17:27:17.662Z,9.20
2022-10-26T17:29:44.890Z,9.30
2022-10-26T17:32:13.415Z,9.30
2022-10-26T17:34:40.321Z,9.30
2022-10-26T17:37:08.597Z,9.30
2022-10-26T17:39:35.508Z,9.20
2022-10-26T17:42:10.969Z,9.20
2022-10-26T17:44:39.543Z,9.20
2022-10-26T17:47:08.809Z,9.40
2022-10-26T17:49:36.381Z,9.40
2022-10-26T17:52:04.122Z,9.30
2022-10-26T17:54:30.931Z,9.20
2022-10-26T17:57:03.591Z,9.10
2022-10-26T17:59:30.633Z,9.10
2022-10-26T18:01:57.601Z,9.10
2022-10-26T18:04:25.005Z,9.10
2022-10-26T18:06:52.260Z,9.10
2022-10-26T18:09:20.138Z,9.20
2022-10-26T18:11:48.650Z,9.10
2022-10-26T18:14:17.809Z,9.10
2022-10-26T18:16:44.816Z,9.10
2022-10-26T18:19:11.696Z,9.10
2022-10-26T18:21:38.619Z,9.10
2022-10-26T18:24:12.212Z,9.10
2022-10-26T18:26:39.829Z,9.10
2022-10-26T18:29:06.826Z,9.10
2022-10-26T18:31:37.204Z,9.10
2022-10-26T18:34:06.522Z,9.10
2022-10-26T18:36:34.185Z,9.10
2022-10-26T18:39:01.320Z,9.10
2022-10-26T18:41:29.243Z,9.10
2022-10-26T18:44:01.665Z,9.20
2022-10-26T18:46:31.854Z,9.20
2022-10-26T18:49:00.817Z,9.20
2022-10-26T18:51:33.518Z,9.20
2022-10-26T18:54:04.068Z,9.20
2022-10-26T18:56:31.482Z,9.20
2022-10-26T18:59:01.326Z,9.20
2022-10-26T19:01:36.779Z,9.20
2022-10-26T19:04:08.562Z,9.20
2022-10-26T19:06:38.607Z,9.20
2022-10-26T19:09:07.176Z,9.20
2022-10-26T19:11:34.516Z,9.20
2022-10-26T19:14:04.583Z,9.20
2022-10-26T19:16:45.080Z,9.20
2022-10-26T19:19:13.650Z,9.20
2022-10-26T19:21:40.536Z,9.20
2022-10-26T19:24:12.734Z,9.20
2022-10-26T19:26:43.442Z,9.10
2022-10-26T19:29:16.436Z,9.10
2022-10-26T19:31:47.569Z,9.10
2022-10-26T19:34:16.162Z,9.20
2022-10-26T19:36:47.141Z,9.10
2022-10-26T19:39:16.214Z,9.10
2022-10-26T19:41:44.368Z,9.10
2022-10-26T19:44:12.249Z,9.10
2022-10-26T19:46:39.982Z,9.10
2022-10-26T19:49:07.190Z,9.00
2022-10-26T19:51:34.188Z,9.00
2022-10-26T19:54:06.168Z,9.00
2022-10-26T19:56:34.691Z,9.10
2022-10-26T19:59:01.695Z,9.10
2022-10-26T20:01:29.001Z,9.10
2022-10-26T20:03:56.036Z,9.10
2022-10-26T20:06:22.965Z,9.00
2022-10-26T20:08:50.639Z,9.10
2022-10-26T20:11:18.331Z,9.00
2022-10-26T20:13:47.050Z,9.00
2022-10-26T20:16:20.372Z,9.00
2022-10-26T20:18:56.787Z,9.00
2022-10-26T20:21:23.778Z,9.10
2022-10-26T20:23:50.927Z,9.10
2022-10-26T20:26:22.579Z,9.10
2022-10-26T20:28:53.609Z,9.00
2022-10-26T20:31:20.607Z,9.00
2022-10-26T20:33:52.731Z,9.00
2022-10-26T20:36:20.059Z,9.00
2022-10-26T20:38:47.189Z,9.00
2022-10-26T20:41:14.322Z,8.90
2022-10-26T20:43:42.088Z,8.90
2022-10-26T20:46:22.451Z,8.90
2022-10-26T20:48:50.792Z,8.90
2022-10-26T20:52:08.719Z,8.90
2022-10-26T20:54:52.174Z,8.80
2022-10-26T20:57:25.632Z,8.80
2022-10-26T20:59:59.022Z,8.70
2022-10-26T21:02:27.795Z,8.70
2022-10-26T21:04:54.695Z,8.70
2022-10-26T21:07:21.723Z,8.70
2022-10-26T21:09:48.586Z,8.70
2022-10-26T21:12:19.421Z,8.70
2022-10-26T21:14:46.377Z,8.70
2022-10-26T21:17:13.345Z,8.70
2022-10-26T21:19:41.466Z,8.80
2022-10-26T21:22:08.457Z,8.80
2022-10-26T21:24:38.280Z,8.80
2022-10-26T21:27:05.139Z,8.80
2022-10-26T21:29:32.265Z,8.80
2022-10-26T21:31:59.086Z,8.80
2022-10-26T21:34:25.932Z,8.80
2022-10-26T21:36:52.922Z,8.90
2022-10-26T21:39:19.786Z,8.80
2022-10-26T21:41:46.609Z,8.80
2022-10-26T21:44:32.772Z,8.90
2022-10-26T21:47:00.403Z,8.90
2022-10-26T21:49:27.386Z,8.90
2022-10-26T21:51:54.307Z,8.90
2022-10-26T21:54:21.258Z,8.90
2022-10-26T21:56:48.292Z,8.90
2022-10-26T21:59:15.145Z,8.90
2022-10-26T22:01:42.294Z,8.90
2022-10-26T22:04:11.090Z,9.00
2022-10-26T22:06:37.995Z,9.00
2022-10-26T22:09:04.942Z,9.00
2022-10-26T22:11:31.986Z,9.00
2022-10-26T22:13:58.810Z,9.00
2022-10-26T22:16:28.123Z,9.00
2022-10-26T22:18:57.901Z,9.00
2022-10-26T22:21:27.078Z,9.00
2022-10-26T22:23:54.453Z,9.00
2022-10-26T22:26:25.399Z,9.00
2022-10-26T22:28:54.222Z,9.00
2022-10-26T22:31:26.793Z,9.00
2022-10-26T22:33:55.054Z,9.00
2022-10-26T22:36:23.598Z,9.00
2022-10-26T22:38:50.950Z,9.00
2022-10-26T22:41:19.194Z,9.00
2022-10-26T22:43:46.491Z,9.00
2022-10-26T22:46:16.362Z,9.00
2022-10-26T22:48:46.489Z,9.10
2022-10-26T22:51:19.924Z,9.00
2022-10-26T22:53:51.091Z,9.00
2022-10-26T22:56:46.223Z,9.00
2022-10-26T23:02:54.587Z,9.00
2022-10-26T23:05:21.491Z,9.00
2022-10-26T23:07:48.583Z,9.00
2022-10-26T23:10:15.908Z,9.00
2022-10-26T23:12:42.784Z,9.00
2022-10-26T23:15:09.939Z,8.90
2022-10-26T23:17:37.046Z,8.90
2022-10-26T23:20:04.100Z,8.90
2022-10-26T23:22:30.956Z,9.00
2022-10-26T23:24:57.942Z,8.90
2022-10-26T23:27:24.801Z,9.00
2022-10-26T23:29:51.759Z,9.00
2022-10-26T23:32:18.764Z,9.00
2022-10-26T23:34:45.586Z,8.90
2022-10-26T23:37:12.462Z,9.00
2022-10-26T23:39:39.556Z,8.90
2022-10-26T23:42:06.489Z,9.00
2022-10-26T23:44:33.370Z,8.90
2022-10-26T23:47:00.486Z,9.00
2022-10-26T23:49:27.298Z,9.00
2022-10-26T23:51:54.175Z,9.00
2022-10-26T23:54:21.424Z,9.00
2022-10-26T23:56:48.334Z,9.00
2022-10-26T23:59:15.741Z,9.00
